Attu

KL  EN  DA
ASIAQ
Weather Now GREENLAND SURVEY
Updated [WGT/WGST] Temperature [°C] Wind [m/s] Air pressure [hPa] Relative humidity [%] Precipitation [mm]
Present Wind chill Speed Max
18.04 00:00n/an/a3,1 ⇖4,61016n/an/a
17.04 23:00n/an/a2,1 ⇑4,61017n/an/a
17.04 22:00n/an/a3,6 ⇒5,11016n/an/a
17.04 21:00n/an/a4,1 ⇒6,71016n/an/a
17.04 20:00n/an/an/an/an/an/an/a
17.04 19:00n/an/a3,1 ⇗4,61015n/an/a
17.04 18:00n/an/a4,1 ⇗5,71015n/an/a
17.04 17:00n/an/a3,6 ⇗5,11014n/an/a
17.04 16:00n/an/a4,1 ⇗6,21013n/an/a
17.04 15:00n/an/a4,6 ⇒6,71013n/an/a
17.04 14:00n/an/a6,7 ⇖8,21012n/an/a
17.04 13:00n/an/a6,2 ⇖7,71012n/an/a
17.04 12:00n/an/a5,1 ⇖7,71012n/an/a
17.04 11:00n/an/a2,1 ⇖4,61011n/an/a
17.04 10:00n/an/a2,1 ⇗3,61011n/an/a
17.04 09:00n/an/a3,6 ⇗4,61011n/an/a
17.04 08:00n/an/a5,1 ⇗7,71011n/an/a
17.04 07:00n/an/a3,1 ⇗4,61010n/an/a
17.04 06:00n/an/a5,1 ⇖6,71010n/an/a
17.04 05:00n/an/a4,1 ⇑5,71010n/an/a
17.04 04:00n/an/a3,1 ⇑6,21009n/an/a
17.04 03:00n/an/a5,7 ⇗7,71009n/an/a
17.04 02:00n/an/a5,7 ⇗7,71009n/an/a
17.04 01:00n/an/a3,1 ⇗5,11009n/an/a
17.04 00:00n/an/a4,1 ⇑7,21009n/an/a
Position: (67.78416666666,-53.965)

[Back]